Time;durP1;ratioP1;P1;durP2;ratioP2;P2;SDS_P1;SDS_P2;PMS_P1;PMS_P2;Temp;Humidity;BMP_temperature;BMP_pressure;BME280_temperature;BME280_humidity;BME280_pressure;Samples;Min_cycle;Max_cycle;Signal;HPM_P1;HPM_P2
2023/01/12 00:02:08;;;;;;;30.08;15.40;;;;;;;6.59;100.00;100902.91;4963844;28;20063;-85
2023/01/12 00:05:49;;;;;;;33.35;16.02;;;;;;;6.68;100.00;100896.03;4965243;28;20139;-84
2023/01/12 00:58:49;;;;;;;27.38;16.65;;;;;;;6.13;100.00;100932.16;5331413;23;20337;-84
2023/01/12 01:01:14;;;;;;;29.23;17.63;;;;;;;6.25;100.00;100935.59;4989162;28;20030;-85
2023/01/12 01:03:40;;;;;;;38.00;18.67;;;;;;;6.04;100.00;100948.69;4974476;28;20043;-85
2023/01/12 01:06:11;;;;;;;29.00;16.52;;;;;;;6.03;100.00;100954.09;4976816;28;20047;-85
2023/01/12 01:08:37;;;;;;;32.92;17.58;;;;;;;6.04;100.00;100963.63;4964415;28;20035;-83
2023/01/12 01:11:04;;;;;;;34.42;18.35;;;;;;;5.75;100.00;100958.00;4990498;28;20021;-83
2023/01/12 01:13:35;;;;;;;29.50;17.73;;;;;;;5.79;100.00;100955.97;4997361;28;20106;-83
2023/01/12 01:16:02;;;;;;;42.72;18.35;;;;;;;5.70;100.00;100957.56;4984309;28;20035;-87
2023/01/12 01:18:27;;;;;;;30.17;17.75;;;;;;;5.62;100.00;100955.53;4981088;28;20035;-86
2023/01/12 01:20:54;;;;;;;34.33;18.42;;;;;;;5.68;100.00;100952.41;4963997;28;20115;-83
2023/01/12 01:23:22;;;;;;;38.83;18.65;;;;;;;5.71;100.00;100957.41;4976394;28;20078;-84
2023/01/12 01:25:47;;;;;;;41.90;18.17;;;;;;;5.72;100.00;100964.34;4979323;28;20039;-86
2023/01/12 01:28:14;;;;;;;38.30;19.52;;;;;;;5.73;100.00;100958.13;4961803;28;20133;-86
2023/01/12 01:30:39;;;;;;;30.55;17.48;;;;;;;5.81;100.00;100956.69;4962355;28;20057;-85
2023/01/12 01:33:05;;;;;;;37.25;18.38;;;;;;;5.71;100.00;100957.41;4946400;28;20478;-84
2023/01/12 01:35:30;;;;;;;28.05;16.42;;;;;;;5.82;100.00;100958.38;4962080;28;20130;-85
2023/01/12 01:37:56;;;;;;;32.97;16.85;;;;;;;6.04;100.00;100968.88;4979590;28;20038;-84
2023/01/12 01:40:21;;;;;;;35.72;19.33;;;;;;;6.09;100.00;100966.75;4979574;28;20082;-84
2023/01/12 01:42:47;;;;;;;33.50;18.30;;;;;;;5.49;100.00;100960.06;4979345;28;20468;-85
2023/01/12 01:45:15;;;;;;;39.30;20.42;;;;;;;5.18;100.00;100964.19;4962190;28;20042;-85
2023/01/12 01:47:45;;;;;;;30.15;19.08;;;;;;;5.35;100.00;100977.84;4979801;28;20054;-86
2023/01/12 01:50:32;;;;;;;31.70;17.50;;;;;;;5.57;100.00;100991.00;4981405;28;20493;-86
2023/01/12 01:53:04;;;;;;;32.65;18.05;;;;;;;5.56;100.00;100982.28;4979432;28;20042;-86
2023/01/12 01:55:49;;;;;;;34.08;19.25;;;;;;;5.46;100.00;100988.38;4961900;28;20027;-86
2023/01/12 01:58:27;;;;;;;38.78;18.15;;;;;;;5.40;100.00;100983.59;4979313;28;20133;-87
2023/01/12 02:00:52;;;;;;;34.63;18.10;;;;;;;5.48;100.00;100971.53;4978625;28;20035;-86
2023/01/12 02:03:18;;;;;;;34.88;20.33;;;;;;;5.32;100.00;100955.25;4960817;28;20496;-84
2023/01/12 02:05:48;;;;;;;33.33;19.38;;;;;;;5.18;100.00;100952.84;4978126;28;20430;-85
2023/01/12 02:08:32;;;;;;;31.92;19.35;;;;;;;5.21;100.00;100958.69;4978586;28;20069;-85
2023/01/12 02:10:59;;;;;;;33.85;19.35;;;;;;;5.51;100.00;100970.44;4977885;28;20045;-86
2023/01/12 02:16:26;;;;;;;33.00;19.45;;;;;;;5.60;100.00;100981.06;4977227;28;20390;-83
2023/01/12 02:18:54;;;;;;;36.60;19.20;;;;;;;5.43;100.00;100965.78;4977457;28;20042;-85
2023/01/12 02:21:40;;;;;;;37.58;18.58;;;;;;;5.58;100.00;100964.59;4977148;28;20034;-85
2023/01/12 02:24:24;;;;;;;35.17;19.63;;;;;;;5.49;100.00;100967.94;4976115;28;20489;-85
2023/01/12 02:26:52;;;;;;;34.85;19.30;;;;;;;5.42;100.00;100971.16;4960068;28;20402;-87
2023/01/12 02:29:47;;;;;;;46.20;20.88;;;;;;;5.53;100.00;100971.16;4943885;28;20058;-85
2023/01/12 02:32:38;;;;;;;37.35;20.52;;;;;;;5.58;100.00;100977.75;4959798;28;20040;-85
2023/01/12 02:35:09;;;;;;;40.47;20.40;;;;;;;5.63;100.00;100993.16;4981673;28;20065;-87
2023/01/12 02:37:40;;;;;;;42.95;18.95;;;;;;;5.65;100.00;100992.09;4967407;28;20131;-86
2023/01/12 02:40:18;;;;;;;34.78;17.77;;;;;;;5.57;100.00;100989.19;4990546;28;20095;-85
2023/01/12 02:43:03;;;;;;;30.17;17.05;;;;;;;5.55;100.00;100972.72;4990336;28;20156;-85
2023/01/12 02:45:41;;;;;;;31.23;18.13;;;;;;;5.37;100.00;100979.38;4978008;28;20108;-86
2023/01/12 02:48:14;;;;;;;38.00;18.33;;;;;;;5.14;100.00;100983.75;4994929;28;20046;-85
2023/01/12 02:50:59;;;;;;;28.58;17.80;;;;;;;4.99;100.00;100984.09;4985659;28;20113;-88
2023/01/12 02:53:35;;;;;;;29.73;18.52;;;;;;;5.11;100.00;100988.41;4993406;28;20470;-86
2023/01/12 02:56:06;;;;;;;32.00;17.50;;;;;;;5.13;100.00;100981.28;4960942;28;20038;-85
2023/01/12 02:58:35;;;;;;;28.95;16.58;;;;;;;5.20;100.00;100987.75;4978482;28;20506;-87
2023/01/12 03:01:05;;;;;;;37.72;19.05;;;;;;;5.06;100.00;100990.56;4979360;28;20122;-88
2023/01/12 03:03:34;;;;;;;32.13;18.35;;;;;;;4.89;100.00;100988.34;4978173;28;20035;-84
2023/01/12 03:06:00;;;;;;;31.58;18.48;;;;;;;5.02;100.00;100979.44;4978830;28;20027;-85
2023/01/12 03:08:29;;;;;;;30.88;17.85;;;;;;;5.21;100.00;100973.63;4978622;28;20039;-85
2023/01/12 03:11:11;;;;;;;28.70;17.13;;;;;;;5.41;100.00;100991.34;4961543;28;20478;-87
2023/01/12 03:13:54;;;;;;;27.02;15.93;;;;;;;5.34;100.00;100981.41;4978259;28;20482;-86
2023/01/12 03:16:26;;;;;;;27.15;15.98;;;;;;;5.08;100.00;100973.72;4985121;28;20038;-84
2023/01/12 03:19:05;;;;;;;32.40;17.08;;;;;;;5.05;100.00;100967.88;4994882;28;20083;-86
2023/01/12 03:21:41;;;;;;;30.60;16.08;;;;;;;5.31;100.00;100979.84;4996135;28;20080;-85
2023/01/12 03:24:13;;;;;;;25.20;16.33;;;;;;;5.09;100.00;100992.97;4977467;28;20046;-83
2023/01/12 03:26:46;;;;;;;27.90;16.25;;;;;;;5.15;100.00;100992.50;4982938;28;20469;-85
2023/01/12 03:29:18;;;;;;;27.02;16.48;;;;;;;5.15;100.00;100987.22;4960494;28;20035;-85
2023/01/12 03:31:44;;;;;;;;;;;;;;;5.36;100.00;100990.03;4977146;28;20097;-84
2023/01/12 03:34:10;;;;;;;32.13;14.90;;;;;;;5.41;100.00;100986.09;4959245;28;19922;-83
2023/01/12 03:36:47;;;;;;;27.30;15.30;;;;;;;5.33;100.00;100991.09;4977023;28;20042;-83
2023/01/12 03:39:24;;;;;;;26.70;14.57;;;;;;;5.26;100.00;100989.91;4976371;28;20038;-85
2023/01/12 03:41:55;;;;;;;28.52;14.63;;;;;;;5.37;100.00;100992.53;4976549;28;20114;-84
2023/01/12 03:45:18;;;;;;;26.95;15.15;;;;;;;5.20;100.00;100993.00;4976396;28;20058;-86
2023/01/12 03:47:46;;;;;;;28.25;14.82;;;;;;;5.13;100.00;101004.91;4917753;29;20131;-86
2023/01/12 03:50:28;;;;;;;27.23;15.18;;;;;;;5.15;100.00;101010.88;4901543;29;20050;-88
2023/01/12 03:52:55;;;;;;;23.33;11.45;;;;;;;5.08;100.00;101004.41;4899891;29;20468;-85
2023/01/12 03:55:24;;;;;;;27.48;15.48;;;;;;;5.25;100.00;101006.59;4884477;29;20044;-84
2023/01/12 03:57:51;;;;;;;29.30;15.95;;;;;;;5.29;100.00;101002.81;4915366;29;20514;-85
2023/01/12 04:00:19;;;;;;;27.35;16.08;;;;;;;5.32;100.00;101002.56;4884531;29;20032;-83
2023/01/12 04:02:45;;;;;;;28.33;15.10;;;;;;;5.38;100.00;100996.84;4915777;29;20052;-83
2023/01/12 04:05:13;;;;;;;24.58;14.70;;;;;;;5.15;100.00;101000.38;4884692;29;20047;-84
2023/01/12 04:07:38;;;;;;;28.02;15.60;;;;;;;5.38;100.00;101002.09;4916271;29;20044;-86
2023/01/12 04:10:04;;;;;;;29.98;16.08;;;;;;;5.41;100.00;101001.84;4915893;29;20499;-86
2023/01/12 04:12:30;;;;;;;26.55;15.98;;;;;;;5.17;100.00;101004.56;4905092;29;20087;-85
2023/01/12 04:14:56;;;;;;;36.85;17.05;;;;;;;5.02;100.00;101012.75;4934158;29;20100;-86
2023/01/12 04:17:24;;;;;;;32.45;16.55;;;;;;;4.97;100.00;101014.91;4926311;28;20043;-84
2023/01/12 04:19:50;;;;;;;30.15;15.35;;;;;;;4.97;100.00;101015.72;4975426;28;20023;-86
2023/01/12 04:25:01;;;;;;;24.80;13.82;;;;;;;4.88;100.00;101033.94;4986759;28;20038;-85
2023/01/12 04:27:27;;;;;;;25.13;13.52;;;;;;;5.11;100.00;101040.94;4988659;28;20054;-84
2023/01/12 04:29:53;;;;;;;28.48;13.15;;;;;;;5.00;100.00;101039.16;4975013;28;20034;-86
2023/01/12 04:32:19;;;;;;;27.30;13.25;;;;;;;4.97;100.00;101054.28;4988308;28;20094;-85
2023/01/12 04:34:45;;;;;;;27.25;12.98;;;;;;;4.95;100.00;101061.44;4978335;28;20450;-86
2023/01/12 04:37:12;;;;;;;20.45;11.35;;;;;;;5.11;100.00;101056.72;4978457;28;20031;-85
2023/01/12 04:39:37;;;;;;;19.42;10.65;;;;;;;5.07;100.00;101044.78;4979172;28;20389;-87
2023/01/12 04:42:59;;;;;;;15.88;9.32;;;;;;;4.92;100.00;101045.91;4945701;28;20067;-86
2023/01/12 04:44:51;;;;;;;20.60;11.05;;;;;;;4.76;100.00;101053.22;4978468;28;20050;-84
2023/01/12 04:47:16;;;;;;;19.48;10.27;;;;;;;4.55;100.00;101056.47;4961460;28;20031;-85
2023/01/12 04:49:42;;;;;;;18.38;10.75;;;;;;;4.41;100.00;101048.72;4961410;28;20117;-84
2023/01/12 04:52:07;;;;;;;23.00;12.00;;;;;;;4.49;100.00;101054.28;4978339;28;20483;-84
2023/01/12 04:54:33;;;;;;;23.10;10.45;;;;;;;4.65;100.00;101057.47;4978588;28;20058;-84
2023/01/12 04:56:58;;;;;;;22.50;10.35;;;;;;;4.73;100.00;101061.34;4978064;28;20039;-84
2023/01/12 04:59:24;;;;;;;19.30;10.07;;;;;;;4.55;100.00;101053.84;4979008;28;20041;-83
2023/01/12 05:01:49;;;;;;;16.02;9.25;;;;;;;4.73;100.00;101066.59;4979438;28;20034;-88
2023/01/12 05:04:15;;;;;;;21.45;9.52;;;;;;;4.54;100.00;101073.16;4978397;28;20058;-83
2023/01/12 05:06:40;;;;;;;13.95;8.10;;;;;;;4.53;100.00;101065.41;4978859;28;20043;-85
2023/01/12 05:11:51;;;;;;;15.50;8.68;;;;;;;4.79;100.00;101066.97;4978925;28;20049;-85
2023/01/12 05:14:17;;;;;;;13.93;7.68;;;;;;;4.75;100.00;101067.31;4978796;28;20039;-86
2023/01/12 05:16:42;;;;;;;15.13;7.70;;;;;;;4.67;100.00;101062.63;4961532;28;20031;-84
2023/01/12 05:19:08;;;;;;;14.98;8.10;;;;;;;4.63;100.00;101074.28;4978698;28;20063;-87
2023/01/12 05:21:33;;;;;;;15.23;8.48;;;;;;;4.47;100.00;101079.81;4961003;28;20049;-85
2023/01/12 05:23:59;;;;;;;21.08;8.98;;;;;;;4.60;100.00;101078.00;4993890;28;20508;-88
2023/01/12 05:26:24;;;;;;;11.88;7.35;;;;;;;4.50;100.00;101086.63;4960563;28;20045;-85
2023/01/12 05:28:50;;;;;;;14.10;7.13;;;;;;;4.37;100.00;101073.53;4960696;28;20070;-86
2023/01/12 05:31:16;;;;;;;13.88;7.25;;;;;;;4.45;100.00;101081.69;4961514;28;20069;-87
2023/01/12 05:33:42;;;;;;;11.90;7.18;;;;;;;4.28;100.00;101075.94;4979127;28;20042;-86
2023/01/12 05:36:11;;;;;;;10.80;6.82;;;;;;;4.18;100.00;101064.47;4979358;28;20039;-85
2023/01/12 05:38:39;;;;;;;13.65;7.22;;;;;;;4.18;100.00;101066.13;4990263;28;20042;-85
2023/01/12 05:41:08;;;;;;;17.75;7.75;;;;;;;4.48;100.00;101078.84;4992006;28;20051;-85
2023/01/12 05:43:50;;;;;;;20.92;7.05;;;;;;;4.54;100.00;101081.03;4961579;28;20043;-85
2023/01/12 05:46:21;;;;;;;14.65;7.40;;;;;;;4.40;100.00;101073.31;4977621;28;20081;-85
2023/01/12 05:48:48;;;;;;;10.57;5.47;;;;;;;4.29;100.00;101068.00;4978645;28;20134;-86
2023/01/12 05:51:14;;;;;;;22.48;10.95;;;;;;;4.09;100.00;101065.94;4964622;28;20090;-88
2023/01/12 05:53:43;;;;;;;22.67;10.85;;;;;;;4.26;100.00;101056.88;4983729;28;20122;-85
2023/01/12 05:56:19;;;;;;;20.13;10.45;;;;;;;4.41;100.00;101064.47;4983084;28;20066;-89
2023/01/12 05:58:53;;;;;;;23.65;9.27;;;;;;;4.47;100.00;101066.69;4983270;28;20449;-90
2023/01/12 06:01:19;;;;;;;16.30;8.68;;;;;;;4.51;100.00;101083.03;4982407;28;20041;-90
2023/01/12 06:03:52;;;;;;;18.02;8.00;;;;;;;4.52;100.00;101084.72;4982994;28;20046;-85
2023/01/12 06:06:18;;;;;;;11.23;6.87;;;;;;;4.69;100.00;101093.06;4978416;28;20551;-84
2023/01/12 06:08:45;;;;;;;13.45;6.35;;;;;;;4.75;100.00;101102.28;4978757;28;20051;-87
2023/01/12 06:13:55;;;;;;;13.45;6.45;;;;;;;4.55;100.00;101103.72;4987743;28;20049;-86
2023/01/12 06:13:56;;;;;;;10.77;5.50;;;;;;;4.53;100.00;101107.41;4983365;28;20042;-86
2023/01/12 06:16:21;;;;;;;14.10;5.68;;;;;;;4.72;100.00;101104.28;4976314;28;20397;-85
2023/01/12 06:18:47;;;;;;;12.75;6.45;;;;;;;4.80;100.00;101104.59;4977809;28;20042;-86
2023/01/12 06:21:12;;;;;;;10.65;5.63;;;;;;;4.69;100.00;101098.31;4977879;28;20105;-86
2023/01/12 06:23:39;;;;;;;7.15;4.22;;;;;;;4.47;100.00;101113.09;4978344;28;20118;-84
2023/01/12 06:26:07;;;;;;;11.82;4.13;;;;;;;4.43;100.00;101119.50;4982990;28;20114;-84
2023/01/12 06:28:35;;;;;;;7.47;3.88;;;;;;;4.00;100.00;101124.28;4976858;28;20043;-82
2023/01/12 06:31:03;;;;;;;10.68;3.45;;;;;;;4.19;100.00;101127.28;4975889;28;20560;-82
2023/01/12 06:33:30;;;;;;;8.07;3.40;;;;;;;4.23;100.00;101134.00;4976163;28;20023;-86
2023/01/12 06:35:56;;;;;;;9.77;3.72;;;;;;;4.29;100.00;101128.34;4976796;28;20062;-86
2023/01/12 06:38:24;;;;;;;6.55;3.35;;;;;;;4.36;100.00;101128.75;4960647;28;20046;-85
2023/01/12 06:40:52;;;;;;;7.40;3.80;;;;;;;4.30;100.00;101126.56;4957155;28;20027;-86
2023/01/12 06:43:18;;;;;;;12.60;5.10;;;;;;;3.90;100.00;101118.81;4954092;28;20482;-83
2023/01/12 06:45:44;;;;;;;12.73;5.38;;;;;;;3.72;100.00;101121.84;4958064;28;20027;-85
2023/01/12 06:48:10;;;;;;;12.82;5.63;;;;;;;3.88;100.00;101125.94;4977966;28;20030;-82
2023/01/12 06:50:36;;;;;;;13.30;5.60;;;;;;;3.67;100.00;101134.44;4975273;28;20026;-83
2023/01/12 06:53:04;;;;;;;11.20;5.65;;;;;;;3.73;100.00;101144.50;4968516;28;20035;-86
2023/01/12 06:55:29;;;;;;;8.38;5.45;;;;;;;3.81;100.00;101160.56;4966892;28;20042;-83
2023/01/12 06:57:55;;;;;;;13.50;5.60;;;;;;;4.06;100.00;101163.19;4966510;28;20035;-82
2023/01/12 07:00:21;;;;;;;18.52;6.82;;;;;;;4.06;100.00;101169.28;4973702;28;20079;-83
2023/01/12 07:02:50;;;;;;;13.10;7.35;;;;;;;4.02;100.00;101153.84;4973989;28;20030;-83
2023/01/12 07:05:16;;;;;;;19.77;7.45;;;;;;;4.01;100.00;101155.63;4955412;29;20075;-81
2023/01/12 07:07:42;;;;;;;16.52;7.55;;;;;;;4.16;100.00;101151.97;4941649;29;20070;-82
2023/01/12 07:10:10;;;;;;;11.52;6.35;;;;;;;4.73;100.00;101146.19;4940856;29;20091;-82
2023/01/12 07:12:35;;;;;;;13.93;6.97;;;;;;;5.11;100.00;101156.56;4955788;29;20045;-84
2023/01/12 07:15:02;;;;;;;12.35;5.88;;;;;;;5.14;100.00;101162.41;4956156;29;20122;-85
2023/01/12 07:17:28;;;;;;;14.35;6.10;;;;;;;5.18;100.00;101163.88;4956017;29;20031;-84
2023/01/12 07:19:54;;;;;;;11.18;5.40;;;;;;;5.29;100.00;101176.25;4955972;29;20035;-85
2023/01/12 07:22:19;;;;;;;14.32;6.53;;;;;;;5.26;100.00;101184.34;4939460;29;20074;-83
2023/01/12 07:24:45;;;;;;;18.60;6.25;;;;;;;5.51;100.00;101194.72;4957141;29;20109;-83
2023/01/12 07:27:10;;;;;;;14.40;7.18;;;;;;;5.82;100.00;101200.34;4958469;29;20043;-82
2023/01/12 07:29:36;;;;;;;10.70;5.60;;;;;;;5.82;100.00;101200.34;4963636;29;20031;-83
2023/01/12 07:32:01;;;;;;;16.52;5.55;;;;;;;5.54;100.00;101207.66;4963010;29;20035;-82
2023/01/12 07:34:27;;;;;;;13.98;5.10;;;;;;;5.55;100.00;101211.97;4962784;29;20027;-85
2023/01/12 07:36:52;;;;;;;8.40;4.82;;;;;;;5.57;100.00;101215.31;4958351;29;20125;-84
2023/01/12 07:39:18;;;;;;;9.20;4.90;;;;;;;5.61;100.00;101214.13;4940289;29;20370;-85
2023/01/12 07:44:28;;;;;;;14.43;5.47;;;;;;;5.37;100.00;101231.69;4962029;29;20043;-85
2023/01/12 07:46:53;;;;;;;11.10;5.05;;;;;;;5.41;100.00;101233.16;4957994;29;20090;-83
2023/01/12 07:49:19;;;;;;;14.88;5.70;;;;;;;5.45;100.00;101226.72;4955301;29;20478;-84
2023/01/12 07:51:44;;;;;;;14.88;5.15;;;;;;;5.67;100.00;101228.59;4955519;29;20110;-84
2023/01/12 07:54:10;;;;;;;10.18;5.60;;;;;;;5.71;100.00;101230.06;4955215;29;20423;-82
2023/01/12 07:56:35;;;;;;;17.55;5.70;;;;;;;5.01;100.00;101226.47;4955082;29;20497;-83
2023/01/12 07:59:02;;;;;;;18.70;6.97;;;;;;;4.63;100.00;101223.94;4937813;29;20031;-85
2023/01/12 08:01:27;;;;;;;24.33;10.88;;;;;;;4.55;100.00;101221.81;4955218;29;20079;-82
2023/01/12 08:03:53;;;;;;;19.80;7.95;;;;;;;4.45;100.00;101220.78;4955298;29;20031;-84
2023/01/12 08:06:19;;;;;;;18.92;7.75;;;;;;;4.62;100.00;101220.47;4955969;29;20429;-83
2023/01/12 08:08:44;;;;;;;15.45;6.60;;;;;;;4.84;100.00;101229.47;4955489;29;20039;-83
2023/01/12 08:11:10;;;;;;;15.23;6.10;;;;;;;5.11;100.00;101241.47;4955104;28;20067;-84
2023/01/12 08:13:37;;;;;;;12.73;5.88;;;;;;;5.30;100.00;101243.63;4923358;29;20170;-85
2023/01/12 08:16:19;;;;;;;15.48;5.45;;;;;;;5.04;100.00;101240.22;4966691;29;20035;-81
2023/01/12 08:19:00;;;;;;;;;;;;;;;5.08;100.00;101231.19;4961813;29;20066;-82
2023/01/12 08:21:31;;;;;;;15.80;6.32;;;;;;;5.28;100.00;101227.13;4961727;28;19906;-82
2023/01/12 08:23:59;;;;;;;15.75;5.93;;;;;;;5.48;100.00;101225.66;4950534;28;20084;-83
2023/01/12 08:26:31;;;;;;;11.25;6.07;;;;;;;5.45;100.00;101234.63;4974186;28;20027;-84
2023/01/12 08:29:30;;;;;;;18.08;8.38;;;;;;;5.00;100.00;101245.81;4957738;28;20173;-84
2023/01/12 08:32:03;;;;;;;23.60;8.93;;;;;;;4.82;100.00;101237.44;4936955;29;20032;-81
2023/01/12 08:34:29;;;;;;;24.08;8.02;;;;;;;4.84;100.00;101217.16;4937195;29;20043;-83
2023/01/12 08:37:01;;;;;;;21.77;8.75;;;;;;;4.92;100.00;101229.75;4954792;29;20024;-84
2023/01/12 08:39:28;;;;;;;27.33;9.80;;;;;;;4.89;100.00;101243.94;4937841;29;20038;-84
2023/01/12 08:41:54;;;;;;;22.65;9.07;;;;;;;5.21;100.00;101246.91;4934800;28;20050;-85
2023/01/12 08:44:20;;;;;;;22.70;9.75;;;;;;;5.21;100.00;101247.75;4956821;28;20082;-83
2023/01/12 08:46:47;;;;;;;24.58;9.55;;;;;;;5.67;100.00;101261.00;4982362;28;20039;-81
2023/01/12 08:49:14;;;;;;;26.13;10.27;;;;;;;5.78;100.00;101264.66;5009885;28;20043;-81
2023/01/12 08:51:41;;;;;;;23.88;10.10;;;;;;;6.16;100.00;101262.66;4976808;28;20062;-81
2023/01/12 08:54:08;;;;;;;22.85;11.85;;;;;;;6.26;100.00;101268.91;4997171;28;20027;-82
2023/01/12 08:56:34;;;;;;;29.48;13.18;;;;;;;5.86;100.00;101281.59;4982919;28;20035;-83
2023/01/12 08:59:00;;;;;;;26.58;11.93;;;;;;;6.21;100.00;101294.72;4964770;28;20034;-82
2023/01/12 09:01:26;;;;;;;31.90;12.63;;;;;;;6.45;100.00;101311.31;4955355;29;20039;-83
2023/01/12 09:04:11;;;;;;;26.15;12.60;;;;;;;6.78;100.00;101312.31;4955704;29;20065;-83
2023/01/12 09:06:39;;;;;;;22.02;12.13;;;;;;;6.61;100.00;101322.34;4963480;29;20120;-84
2023/01/12 09:09:11;;;;;;;21.45;11.60;;;;;;;6.95;100.00;101325.03;4969305;29;20133;-83
2023/01/12 09:11:40;;;;;;;23.63;12.80;;;;;;;6.59;100.00;101323.44;4969234;29;20041;-87
2023/01/12 09:14:05;;;;;;;18.15;10.20;;;;;;;6.96;100.00;101329.34;4954628;29;20027;-86
2023/01/12 09:16:32;;;;;;;17.73;9.93;;;;;;;7.18;100.00;101326.72;4954662;29;20045;-85
2023/01/12 09:18:58;;;;;;;19.75;9.35;;;;;;;7.28;100.00;101328.50;4954580;29;20040;-82
2023/01/12 09:21:26;;;;;;;18.20;8.65;;;;;;;7.40;100.00;101326.69;4954010;28;20113;-84
2023/01/12 09:23:53;;;;;;;15.63;9.40;;;;;;;7.06;100.00;101325.03;4959718;29;20039;-86
2023/01/12 09:26:21;;;;;;;18.02;9.25;;;;;;;7.27;100.00;101323.34;4943862;29;20339;-84
2023/01/12 09:28:47;;;;;;;20.13;9.48;;;;;;;7.57;100.00;101334.09;4965975;28;20050;-83
2023/01/12 09:31:16;;;;;;;16.15;9.07;;;;;;;7.60;100.00;101344.38;4969593;28;20039;-83
2023/01/12 09:33:42;;;;;;;15.73;9.20;;;;;;;7.58;100.00;101346.31;4960341;28;20046;-85
2023/01/12 09:36:10;;;;;;;19.67;9.52;;;;;;;7.48;100.00;101350.66;4963421;28;20031;-84
2023/01/12 09:38:38;;;;;;;23.58;9.43;;;;;;;7.70;100.00;101350.59;4976001;28;20113;-86
2023/01/12 09:47:30;;;;;;;18.60;9.32;;;;;;;7.80;100.00;101372.66;4971449;28;20173;-87
2023/01/12 09:50:06;;;;;;;15.32;8.77;;;;;;;7.72;100.00;101358.41;4973253;28;20046;-84
2023/01/12 09:52:43;;;;;;;17.13;9.00;;;;;;;7.67;100.00;101348.22;4975000;28;20134;-87
2023/01/12 09:55:16;;;;;;;15.18;8.75;;;;;;;7.78;100.00;101352.63;4973489;28;20374;-86
2023/01/12 09:58:05;;;;;;;16.40;9.32;;;;;;;7.79;100.00;101349.84;4941573;28;20101;-83
2023/01/12 10:00:30;;;;;;;17.00;9.13;;;;;;;7.92;100.00;101348.88;4948683;28;20047;-84
2023/01/12 10:03:09;;;;;;;18.23;9.48;;;;;;;7.95;100.00;101346.00;4993781;28;20033;-83
2023/01/12 10:05:57;;;;;;;17.48;9.57;;;;;;;7.86;100.00;101339.63;4971713;28;20049;-83
2023/01/12 10:08:29;;;;;;;16.13;8.65;;;;;;;8.04;100.00;101345.22;4990484;28;20125;-84
2023/01/12 10:11:32;;;;;;;17.80;9.43;;;;;;;8.04;100.00;101343.44;4983407;28;20045;-83
2023/01/12 10:14:16;;;;;;;;;;;;;;;7.97;100.00;101334.34;4977208;28;20465;-81
2023/01/12 10:16:51;;;;;;;16.38;8.60;;;;;;;8.17;100.00;101328.25;4976749;28;20370;-82
2023/01/12 10:19:38;;;;;;;371.67;153.05;;;;;;;8.22;100.00;101331.34;4976628;28;20482;-80
2023/01/12 10:22:35;;;;;;;24.33;11.25;;;;;;;8.33;100.00;101338.41;4976022;28;20126;-81
2023/01/12 10:25:32;;;;;;;26.15;10.50;;;;;;;8.45;100.00;101332.09;4976216;28;20046;-80
2023/01/12 10:28:03;;;;;;;24.50;10.25;;;;;;;8.47;100.00;101324.91;4975904;28;20078;-82
2023/01/12 10:30:38;;;;;;;19.07;10.33;;;;;;;8.41;100.00;101324.56;4975514;28;20138;-81
2023/01/12 10:33:11;;;;;;;20.17;9.63;;;;;;;8.52;100.00;101332.41;4975429;28;20514;-82
2023/01/12 10:35:51;;;;;;;21.92;10.82;;;;;;;8.42;100.00;101327.06;4958379;28;20047;-80
2023/01/12 10:38:27;;;;;;;18.20;10.30;;;;;;;8.49;100.00;101322.94;4975527;28;20034;-86
2023/01/12 10:41:08;;;;;;;22.95;11.25;;;;;;;8.51;100.00;101326.31;4975697;28;20114;-81
2023/01/12 10:43:35;;;;;;;25.23;10.32;;;;;;;8.56;100.00;101329.41;4958643;28;20039;-83
2023/01/12 10:46:03;;;;;;;27.67;12.18;;;;;;;8.70;100.00;101323.78;4978209;28;20078;-82
2023/01/12 10:48:29;;;;;;;66.93;24.90;;;;;;;8.77;100.00;101326.75;4977002;28;20034;-83
2023/01/12 10:51:04;;;;;;;38.08;16.45;;;;;;;8.87;100.00;101319.72;4961108;28;20397;-83
2023/01/12 10:53:46;;;;;;;121.38;38.90;;;;;;;8.67;100.00;101313.47;4975929;28;20034;-83
2023/01/12 10:56:36;;;;;;;48.03;18.83;;;;;;;8.85;100.00;101307.59;4958939;28;20074;-82
2023/01/12 10:59:10;;;;;;;29.30;13.30;;;;;;;8.81;100.00;101299.94;4976523;28;20058;-86
2023/01/12 11:02:02;;;;;;;24.17;12.10;;;;;;;8.74;100.00;101296.13;4959219;28;20489;-83
2023/01/12 11:04:29;;;;;;;26.13;13.23;;;;;;;8.62;100.00;101291.88;4990010;28;20034;-81
2023/01/12 11:07:00;;;;;;;55.95;22.70;;;;;;;8.77;100.00;101295.88;4974857;28;20442;-83
2023/01/12 11:09:28;;;;;;;40.55;19.27;;;;;;;8.73;100.00;101294.47;4976222;28;20386;-83
2023/01/12 11:11:59;;;;;;;50.80;21.55;;;;;;;8.93;100.00;101295.38;4972919;28;20039;-83
2023/01/12 11:14:38;;;;;;;25.10;12.43;;;;;;;8.96;100.00;101299.56;4975296;28;20042;-82
2023/01/12 11:17:50;;;;;;;27.80;13.65;;;;;;;9.07;100.00;101296.84;4976125;28;20117;-83
2023/01/12 11:20:36;;;;;;;25.55;12.93;;;;;;;8.89;100.00;101311.63;4968943;28;20498;-82
2023/01/12 11:23:08;;;;;;;21.25;12.60;;;;;;;8.97;100.00;101311.81;4967282;28;20039;-84
2023/01/12 11:25:40;;;;;;;23.30;13.07;;;;;;;8.94;100.00;101306.81;4969765;28;20042;-83
2023/01/12 11:28:19;;;;;;;25.13;12.30;;;;;;;8.92;100.00;101303.44;4968374;28;20034;-83
2023/01/12 11:31:03;;;;;;;24.80;14.07;;;;;;;8.96;100.00;101291.63;4966883;28;20035;-84
2023/01/12 11:33:31;;;;;;;23.67;13.23;;;;;;;8.87;100.00;101288.00;4976117;28;20093;-83
2023/01/12 11:36:31;;;;;;;24.60;13.48;;;;;;;8.98;100.00;101284.41;4975976;28;20035;-82
2023/01/12 11:39:03;;;;;;;26.75;12.65;;;;;;;8.95;100.00;101276.75;4890799;29;20516;-84
2023/01/12 11:44:57;;;;;;;27.33;14.15;;;;;;;8.77;100.00;101274.72;4886995;29;20492;-82
2023/01/12 11:47:30;;;;;;;26.73;14.55;;;;;;;8.73;100.00;101293.63;4897017;29;20527;-82
2023/01/12 11:50:15;;;;;;;24.27;13.93;;;;;;;8.87;100.00;101279.22;4967728;28;20151;-84
2023/01/12 11:52:41;;;;;;;26.52;14.13;;;;;;;9.17;100.00;101265.97;4964550;28;20038;-84
2023/01/12 11:55:15;;;;;;;27.05;13.80;;;;;;;9.23;100.00;101276.00;4974582;28;20031;-85
2023/01/12 11:58:05;;;;;;;31.38;13.63;;;;;;;9.11;100.00;101277.09;4970475;28;20054;-84
2023/01/12 12:00:46;;;;;;;26.73;13.00;;;;;;;9.09;100.00;101268.44;4967441;28;20058;-84
2023/01/12 12:03:11;;;;;;;24.40;13.60;;;;;;;9.26;100.00;101265.16;4963608;28;20035;-81
2023/01/12 12:06:04;;;;;;;25.85;14.20;;;;;;;9.16;100.00;101259.00;4968701;28;20062;-81
2023/01/12 12:09:12;;;;;;;31.05;14.55;;;;;;;9.26;100.00;101244.84;4952429;28;20430;-84
2023/01/12 12:11:55;;;;;;;28.83;15.02;;;;;;;9.15;100.00;101244.09;4956835;28;20074;-85
2023/01/12 12:31:09;;;;;;;26.83;17.27;;;;;;;9.05;100.00;101236.13;5577687;23;20361;-87
2023/01/12 12:34:13;;;;;;;33.88;18.67;;;;;;;8.94;100.00;101244.19;4940850;29;20039;-86
2023/01/12 12:37:20;;;;;;;32.80;20.30;;;;;;;8.85;100.00;101233.59;4958284;28;20040;-89
2023/01/12 12:40:01;;;;;;;33.45;18.52;;;;;;;8.70;100.00;101226.00;4938333;29;20050;-87
2023/01/12 12:46:18;;;;;;;34.35;19.85;;;;;;;8.67;100.00;101209.59;4945747;28;20047;-90
2023/01/12 12:48:46;;;;;;;38.03;19.83;;;;;;;8.59;100.00;101215.53;4971932;28;20087;-89
2023/01/12 12:51:13;;;;;;;32.75;19.27;;;;;;;8.70;100.00;101215.44;4941749;28;20046;-90
2023/01/12 12:53:42;;;;;;;35.03;19.15;;;;;;;8.74;100.00;101216.84;4964737;28;20079;-85
2023/01/12 12:56:11;;;;;;;33.70;19.65;;;;;;;8.90;100.00;101205.78;4967789;28;20154;-84
2023/01/12 12:58:50;;;;;;;34.72;19.55;;;;;;;9.00;100.00;101200.50;4970333;28;20050;-86
2023/01/12 13:01:28;;;;;;;29.98;19.17;;;;;;;8.88;100.00;101202.44;4950717;29;20043;-89
2023/01/12 13:04:06;;;;;;;39.13;20.08;;;;;;;8.92;100.00;101197.69;4959525;29;20471;-87
2023/01/12 13:06:45;;;;;;;32.50;20.10;;;;;;;9.01;100.00;101196.91;4927613;29;20035;-90
2023/01/12 13:09:13;;;;;;;33.80;19.98;;;;;;;8.96;100.00;101188.53;4944211;29;20061;-89